| time (UTC) | temp F | wind direction | speed MPH | gust MPH | rain 1hr in | rain 24hr in | rain mn in | humidity % | barometer mb |
| 20260904121535 | 61 | 246 | 0.0 | 0.0 | 0.00 | 0.00 | 0.00 | 83 | 1004.4 |
| 20260904120033 | 61 | 246 | 0.0 | 0.0 | 0.00 | 0.00 | 0.00 | 82 | 1004.4 |
| 20260904114539 | 61 | 246 | 0.0 | 0.0 | 0.00 | 0.00 | 0.00 | 82 | 1004.3 |
| 20260904113039 | 61 | 246 | 0.0 | 0.0 | 0.00 | 0.00 | 0.00 | 82 | 1004.2 |
| 20260904111530 | 61 | 246 | 0.0 | 0.0 | 0.00 | 0.00 | 0.00 | 82 | 1004.3 |
| 20260904110028 | 61 | 246 | 0.0 | 2.0 | 0.00 | 0.00 | 0.00 | 81 | 1004.2 |
| 20260904104529 | 62 | 246 | 0.0 | 2.0 | 0.00 | 0.00 | 0.00 | 81 | 1004.2 |
| 20260904103036 | 62 | 246 | 0.0 | 0.0 | 0.00 | 0.00 | 0.00 | 80 | 1004.1 |
| 20260904101525 | 62 | 246 | 0.0 | 0.0 | 0.00 | 0.00 | 0.00 | 80 | 1004.0 |
| 20260904100024 | 62 | 246 | 0.0 | 0.0 | 0.00 | 0.00 | 0.00 | 80 | 1003.9 |
| 20260904094530 | 62 | 246 | 0.0 | 2.0 | 0.00 | 0.00 | 0.00 | 81 | 1003.9 |
| 20260904093024 | 62 | 246 | 0.0 | 1.0 | 0.00 | 0.00 | 0.00 | 81 | 1003.8 |
| 20260904091523 | 62 | 246 | 0.0 | 3.0 | 0.00 | 0.00 | 0.00 | 81 | 1003.9 |
| 20260904090021 | 62 | 246 | 0.0 | 4.0 | 0.00 | 0.00 | 0.00 | 81 | 1004.0 |
| 20260904084521 | 62 | 337 | 0.0 | 2.0 | 0.00 | 0.00 | 0.00 | 81 | 1004.0 |
| 20260904083019 | 62 | 269 | 1.0 | 2.0 | 0.00 | 0.00 | 0.00 | 80 | 1004.1 |
| 20260904081517 | 62 | 271 | 0.0 | 5.0 | 0.00 | 0.00 | 0.00 | 80 | 1004.2 |
| 20260904080016 | 62 | 248 | 0.0 | 3.0 | 0.00 | 0.00 | 0.00 | 79 | 1004.2 |
| 20260904074515 | 62 | 248 | 0.0 | 4.0 | 0.00 | 0.00 | 0.00 | 79 | 1004.0 |
| 20260904073012 | 63 | 247 | 0.0 | 3.0 | 0.00 | 0.00 | 0.00 | 78 | 1004.0 |
| 20260904071511 | 63 | 247 | 0.0 | 0.0 | 0.00 | 0.00 | 0.00 | 77 | 1003.9 |
| 20260904070008 | 63 | 247 | 0.0 | 0.0 | 0.00 | 0.00 | 0.00 | 76 | 1004.0 |
| 20260904064508 | 63 | 247 | 0.0 | 0.0 | 0.00 | 0.00 | 0.00 | 76 | 1004.0 |
| 20260904063009 | 64 | 247 | 0.0 | 0.0 | 0.00 | 0.00 | 0.00 | 76 | 1004.0 |
| 20260904061507 | 64 | 247 | 0.0 | 1.0 | 0.00 | 0.00 | 0.00 | 76 | 1004.0 |
| 20260904060010 | 64 | 247 | 0.0 | 1.0 | 0.00 | 0.00 | 0.00 | 75 | 1004.2 |
| 20260904054508 | 64 | 247 | 0.0 | 3.0 | 0.00 | 0.00 | 0.00 | 75 | 1004.2 |
| 20260904053006 | 64 | 32 | 0.0 | 3.0 | 0.00 | 0.00 | 0.00 | 75 | 1004.3 |
| 20260904051514 | 64 | 271 | 0.0 | 2.0 | 0.00 | 0.00 | 0.00 | 74 | 1004.4 |
| 20260904050004 | 64 | 279 | 0.0 | 3.0 | 0.00 | 0.00 | 0.00 | 74 | 1004.5 |
| 20260904044504 | 64 | 13 | 0.0 | 3.0 | 0.00 | 0.00 | 0.00 | 73 | 1004.6 |
| 20260904043003 | 64 | 19 | 0.0 | 2.0 | 0.00 | 0.00 | 0.00 | 72 | 1004.6 |
| 20260904041503 | 64 | 278 | 0.0 | 0.0 | 0.00 | 0.00 | 0.00 | 70 | 1004.4 |
| 20260904040002 | 64 | 278 | 0.0 | 0.0 | 0.00 | 0.00 | 0.00 | 68 | 1004.2 |
| 20260904034501 | 65 | 278 | 0.0 | 0.0 | 0.00 | 0.00 | 0.00 | 66 | 1004.0 |
| 20260904033003 | 66 | 278 | 0.0 | 0.0 | 0.00 | 0.00 | 0.00 | 64 | 1003.9 |
| 20260904031602 | 67 | 278 | 0.0 | 0.0 | 0.00 | 0.00 | 0.00 | 62 | 1003.8 |
| 20260904030059 | 68 | 278 | 0.0 | 2.0 | 0.00 | 0.00 | 0.00 | 61 | 1003.8 |
| 20260904024604 | 69 | 278 | 0.0 | 3.0 | 0.00 | 0.00 | 0.00 | 58 | 1003.9 |
| 20260904023058 | 71 | 54 | 0.0 | 2.0 | 0.00 | 0.00 | 0.00 | 53 | 1003.9 |
| 20260904021601 | 72 | 278 | 0.0 | 2.0 | 0.00 | 0.00 | 0.00 | 46 | 1003.8 |
| 20260904020059 | 73 | 278 | 0.0 | 3.0 | 0.00 | 0.00 | 0.00 | 45 | 1003.9 |
| 20260904014637 | 74 | 302 | 0.0 | 3.0 | 0.00 | 0.00 | 0.00 | 44 | 1003.9 |
| 20260904013057 | 75 | 262 | 0.0 | 4.0 | 0.00 | 0.00 | 0.00 | 41 | 1004.1 |
| 20260904011551 | 75 | 139 | 0.0 | 5.0 | 0.00 | 0.00 | 0.00 | 37 | 1004.0 |
| 20260904010050 | 76 | 310 | 0.0 | 4.0 | 0.00 | 0.00 | 0.00 | 34 | 1004.2 |
| 20260904004549 | 77 | 188 | 0.0 | 2.0 | 0.00 | 0.00 | 0.00 | 33 | 1004.3 |
| 20260904003047 | 78 | 296 | 0.0 | 7.0 | 0.00 | 0.00 | 0.00 | 33 | 1004.3 |
| 20260904001546 | 77 | 248 | 0.0 | 4.0 | 0.00 | 0.00 | 0.00 | 36 | 1004.3 |
| 20260904000126 | 76 | 286 | 1.0 | 5.0 | 0.00 | 0.00 | 0.00 | 37 | 1004.4 |
| 20260903234543 | 77 | 178 | 0.0 | 6.0 | 0.00 | 0.00 | 0.00 | 38 | 1004.5 |
| 20260903233042 | 77 | 196 | 0.0 | 4.0 | 0.00 | 0.00 | 0.00 | 38 | 1004.6 |
| 20260903231541 | 78 | 327 | 0.0 | 4.0 | 0.00 | 0.00 | 0.00 | 39 | 1004.8 |
| 20260903230038 | 77 | 265 | 0.0 | 9.0 | 0.00 | 0.00 | 0.00 | 41 | 1005.0 |
| 20260903224545 | 78 | 246 | 0.0 | 3.0 | 0.00 | 0.00 | 0.00 | 41 | 1005.2 |
| 20260903223036 | 77 | 113 | 1.0 | 5.0 | 0.00 | 0.00 | 0.00 | 42 | 1005.4 |
| 20260903221533 | 77 | 121 | 1.0 | 6.0 | 0.00 | 0.00 | 0.00 | 42 | 1005.7 |
| 20260903220033 | 78 | 213 | 1.0 | 8.0 | 0.00 | 0.00 | 0.00 | 43 | 1005.8 |
| 20260903214535 | 77 | 320 | 2.0 | 10.0 | 0.00 | 0.00 | 0.00 | 43 | 1005.7 |
| 20260903213036 | 77 | 80 | 2.0 | 7.0 | 0.00 | 0.00 | 0.00 | 44 | 1005.8 |
| 20260903211536 | 77 | 230 | 1.0 | 9.0 | 0.00 | 0.00 | 0.00 | 44 | 1005.9 |
| 20260903210028 | 77 | 112 | 0.0 | 8.0 | 0.00 | 0.00 | 0.00 | 44 | 1005.9 |
| 20260903204525 | 77 | 190 | 1.0 | 8.0 | 0.00 | 0.00 | 0.00 | 45 | 1006.0 |
| 20260903203026 | 76 | 133 | 0.0 | 8.0 | 0.00 | 0.00 | 0.00 | 46 | 1005.9 |
| 20260903201521 | 76 | 222 | 2.0 | 6.0 | 0.00 | 0.00 | 0.00 | 45 | 1006.0 |
| 20260903200024 | 75 | 140 | 1.0 | 7.0 | 0.00 | 0.00 | 0.00 | 46 | 1006.3 |
| 20260903194523 | 76 | 221 | 1.0 | 5.0 | 0.00 | 0.00 | 0.00 | 43 | 1006.4 |
| 20260903193016 | 75 | 323 | 0.0 | 8.0 | 0.00 | 0.00 | 0.00 | 45 | 1006.5 |
| 20260903191528 | 75 | 215 | 1.0 | 7.0 | 0.00 | 0.00 | 0.00 | 44 | 1006.8 |
| 20260903190011 | 76 | 213 | 0.0 | 5.0 | 0.00 | 0.00 | 0.00 | 45 | 1007.0 |
| 20260903184511 | 74 | 249 | 2.0 | 7.0 | 0.00 | 0.00 | 0.00 | 46 | 1007.1 |
| 20260903183006 | 74 | 208 | 0.0 | 10.0 | 0.00 | 0.00 | 0.00 | 47 | 1007.3 |
| 20260903181603 | 73 | 110 | 0.0 | 8.0 | 0.00 | 0.00 | 0.00 | 48 | 1007.3 |
| 20260903180100 | 73 | 231 | 1.0 | 7.0 | 0.00 | 0.00 | 0.00 | 49 | 1007.2 |
| 20260903180001 | 73 | 129 | 1.0 | 7.0 | 0.00 | 0.00 | 0.00 | 50 | 1007.2 |
| 20260903174557 | 72 | 138 | 1.0 | 6.0 | 0.00 | 0.00 | 0.00 | 52 | 1007.1 |
| 20260903173054 | 70 | 232 | 1.0 | 4.0 | 0.00 | 0.00 | 0.00 | 53 | 1007.3 |
| 20260903171552 | 68 | 235 | 0.0 | 3.0 | 0.00 | 0.00 | 0.00 | 58 | 1007.5 |
| 20260903170145 | 66 | 238 | 0.0 | 5.0 | 0.00 | 0.00 | 0.00 | 62 | 1007.6 |
| 20260903164541 | 61 | 219 | 0.0 | 2.0 | 0.00 | 0.00 | 0.00 | 73 | 1007.8 |
| 20260903163047 | 58 | 219 | 0.0 | 1.0 | 0.00 | 0.00 | 0.00 | 83 | 1007.7 |
| 20260903161532 | 55 | 219 | 0.0 | 0.0 | 0.00 | 0.00 | 0.00 | 87 | 1007.8 |
| 20260903160032 | 54 | 219 | 0.0 | 0.0 | 0.00 | 0.00 | 0.00 | 89 | 1008.0 |
| 20260903154531 | 52 | 219 | 0.0 | 0.0 | 0.00 | 0.00 | 0.00 | 89 | 1008.1 |
| 20260903153029 | 51 | 219 | 0.0 | 0.0 | 0.00 | 0.00 | 0.00 | 89 | 1008.2 |
| 20260903151530 | 50 | 219 | 0.0 | 0.0 | 0.00 | 0.00 | 0.00 | 88 | 1008.2 |
| 20260903150037 | 49 | 219 | 0.0 | 0.0 | 0.00 | 0.00 | 0.00 | 88 | 1008.1 |
| 20260903144528 | 49 | 219 | 0.0 | 0.0 | 0.00 | 0.00 | 0.00 | 88 | 1008.1 |
| 20260903143035 | 48 | 219 | 0.0 | 0.0 | 0.00 | 0.00 | 0.00 | 87 | 1008.0 |
| 20260903141526 | 48 | 219 | 0.0 | 0.0 | 0.00 | 0.00 | 0.00 | 87 | 1007.9 |
| 20260903140026 | 48 | 219 | 0.0 | 0.0 | 0.00 | 0.00 | 0.00 | 87 | 1007.8 |
| 20260903134524 | 48 | 219 | 0.0 | 0.0 | 0.00 | 0.00 | 0.00 | 87 | 1007.8 |
| 20260903133027 | 48 | 219 | 0.0 | 0.0 | 0.00 | 0.00 | 0.00 | 86 | 1007.8 |
| 20260903131523 | 48 | 219 | 0.0 | 0.0 | 0.00 | 0.00 | 0.00 | 86 | 1007.8 |
| 20260903130022 | 48 | 219 | 0.0 | 0.0 | 0.00 | 0.00 | 0.00 | 86 | 1007.8 |
| 20260903124524 | 48 | 219 | 0.0 | 0.0 | 0.00 | 0.00 | 0.00 | 86 | 1007.8 |
| 20260903123027 | 49 | 219 | 0.0 | 0.0 | 0.00 | 0.00 | 0.00 | 85 | 1007.9 |